A- A+ FrançaisEnglishEspañol中国

最近的 MMZO ManzanilloLFBT Tarbes-Lourdes-PyrénéesSDZM Fazenda São MarcosSKUL TuluaUEEE YakutskUEMM Magan

飞行员的航空天气,使用METAR(气象机场报告)进行的飞行准备和TAF(终端机场预报:针对以下情况的短期天气预报)航空)。 以及其他资源,例如VAC(目视进近图)和NOTAM(通知飞行员)以进行预试飞行.

METAR, TAF, VAC, NOTAM Baker Mun机场 (美国) / OACI KBHK

它位于附近 Baker, Baker 在 2.9 km, Ekalaka 在 56 km, Walser Crossing 在 59 km, Beach 在 66 km, Bowman 在 69 km, Wibaux 在 71 km, Amidon 在 73 km, Medora 在 84 km, Glendive 在 91 km, West Glendive 在 93 km,

机场的高度为 Baker Mun机场的

907 m = 2976 ft

跑道 Baker Mun机场的

附近的机场Baker Mun机场的

目前的天气 Baker Mun机场的 - KBHK

nuages fragmentés
17°C

Vent 9 km/h

可提供5天天气预报 Baker 在 2.9 km, Ekalaka 在 56 km, Walser Crossing 在 59 km, Beach 在 66 km, Bowman 在 69 km, Wibaux 在 71 km, Amidon 在 73 km, Medora 在 84 km, Glendive 在 91 km, West Glendive 在 93 km,

METAR Baker Mun机场的 - KBHK

KBHK 110351Z AUTO 32005KT 10SM CLR 17/12 A3014 RMK AO2 SLP186 T01670117

Baker Mun机场METAR解码 (美国)

KBHK机场发行的METAR日期2020年07月11日至03:51 GMT. 这是一个自动生成的METAR, 警告:此METAR已过期, 已于 100 天 11 小时 58 分钟.

可见度为16.1 km = 10 sm.

温度为17°C = 63 °F 露点为12°C = 54 °F 。 这相当于72%的相对湿度。.

QNH是1021 hPa = 30.15 inHg

的风5 kt = 9 km/h, 风向为320°.

天空晴朗

备注 AO2 SLP186 T01670117

TAF Baker Mun机场的 - KBHK

没有TAF

Baker Mun机场的NOTAM

提供的NOTAM不能保证其时事性。 在将其用于飞行准备或在飞行期间使用之前,飞行员是唯一负责验证其有效性的人员。

没有通知

数据源